Time;durP1;ratioP1;P1;durP2;ratioP2;P2;SDS_P1;SDS_P2;PMS_P1;PMS_P2;Temp;Humidity;BMP_temperature;BMP_pressure;BME280_temperature;BME280_humidity;BME280_pressure;Samples;Min_cycle;Max_cycle;Signal;HPM_P1;HPM_P2
2023/07/10 00:01:26;;;;;;;4.95;2.70;;;22.60;99.90;;;;;;5032397;28;20036;-39
2023/07/10 00:03:52;;;;;;;2.90;2.60;;;22.60;99.90;;;;;;5032362;28;20026;-40
2023/07/10 00:06:18;;;;;;;3.95;2.53;;;22.60;99.90;;;;;;5032411;28;20388;-39
2023/07/10 00:08:44;;;;;;;3.70;2.20;;;22.60;99.90;;;;;;5032237;28;20025;-40
2023/07/10 00:11:19;;;;;;;5.32;2.90;;;22.60;99.90;;;;;;5032208;28;20059;-39
2023/07/10 00:13:47;;;;;;;3.00;2.70;;;22.60;99.90;;;;;;5032185;28;20033;-39
2023/07/10 00:16:17;;;;;;;3.65;2.92;;;22.60;99.90;;;;;;5032180;28;20029;-42
2023/07/10 00:18:45;;;;;;;3.80;2.60;;;22.60;99.90;;;;;;5032122;28;20065;-40
2023/07/10 00:21:10;;;;;;;3.60;2.60;;;22.60;99.90;;;;;;5031961;28;20445;-39
2023/07/10 00:23:36;;;;;;;3.55;2.58;;;22.60;99.90;;;;;;5031907;28;20036;-40
2023/07/10 00:26:08;;;;;;;3.33;2.85;;;22.60;99.90;;;;;;5031990;28;20127;-39
2023/07/10 00:28:34;;;;;;;3.88;2.72;;;22.60;99.90;;;;;;5032510;28;20458;-39
2023/07/10 00:31:00;;;;;;;2.80;2.40;;;22.60;99.90;;;;;;5032271;28;20030;-42
2023/07/10 00:33:26;;;;;;;2.75;2.35;;;22.60;99.90;;;;;;5031724;28;20043;-39
2023/07/10 00:35:52;;;;;;;3.45;2.47;;;22.60;99.90;;;;;;5031826;28;20083;-41
2023/07/10 00:38:19;;;;;;;3.50;2.55;;;22.60;99.90;;;;;;5031733;28;20025;-39
2023/07/10 00:40:46;;;;;;;3.53;2.67;;;22.60;99.90;;;;;;5031611;28;20029;-39
2023/07/10 00:43:42;;;;;;;3.45;2.67;;;22.60;99.90;;;;;;5031728;28;20462;-38
2023/07/10 00:46:26;;;;;;;3.30;2.60;;;22.60;99.90;;;;;;5031560;28;20037;-42
2023/07/10 00:48:58;;;;;;;3.08;2.63;;;22.60;99.90;;;;;;5031458;28;20131;-40
2023/07/10 00:51:30;;;;;;;5.38;2.78;;;22.60;99.90;;;;;;5031593;28;20489;-40
2023/07/10 00:53:57;;;;;;;2.90;2.60;;;22.60;99.90;;;;;;5031440;28;20025;-40
2023/07/10 00:56:28;;;;;;;4.00;2.88;;;22.60;99.90;;;;;;5031746;28;20085;-40
2023/07/10 00:58:53;;;;;;;4.07;2.90;;;22.60;99.90;;;;;;5031261;28;20029;-40
2023/07/10 01:01:23;;;;;;;3.47;2.70;;;22.60;99.90;;;;;;5031282;28;20105;-39
2023/07/10 01:03:51;;;;;;;3.70;2.80;;;22.60;99.90;;;;;;5031287;28;20116;-40
2023/07/10 01:06:26;;;;;;;3.35;2.95;;;22.60;99.90;;;;;;5031400;28;20083;-39
2023/07/10 01:08:59;;;;;;;3.60;2.78;;;22.60;99.90;;;;;;5031153;28;20448;-40
2023/07/10 01:11:25;;;;;;;4.60;2.80;;;22.60;99.90;;;;;;5031317;28;20021;-38
2023/07/10 01:13:53;;;;;;;3.95;2.80;;;22.60;99.90;;;;;;5031055;28;20018;-38
2023/07/10 01:16:20;;;;;;;4.60;2.80;;;22.60;99.90;;;;;;5031235;28;20025;-40
2023/07/10 01:18:46;;;;;;;3.58;2.60;;;22.60;99.90;;;;;;5031148;28;20080;-37
2023/07/10 01:21:30;;;;;;;3.92;2.83;;;22.60;99.90;;;;;;5031004;28;20042;-39
2023/07/10 01:23:58;;;;;;;4.03;2.87;;;22.50;99.90;;;;;;5031176;28;20064;-40
2023/07/10 01:26:24;;;;;;;4.30;2.90;;;22.50;99.90;;;;;;5031057;28;20021;-39
2023/07/10 01:28:52;;;;;;;3.33;2.83;;;22.60;99.90;;;;;;5030946;28;20083;-41
2023/07/10 01:31:19;;;;;;;3.08;2.33;;;22.50;99.90;;;;;;5031305;28;20021;-39
2023/07/10 01:33:57;;;;;;;3.97;2.90;;;22.60;99.90;;;;;;5030939;28;20038;-43
2023/07/10 01:36:26;;;;;;;3.30;2.55;;;22.50;99.90;;;;;;5035473;28;20032;-40
2023/07/10 01:39:09;;;;;;;4.57;2.53;;;22.60;99.90;;;;;;5034963;28;20489;-39
2023/07/10 01:41:39;;;;;;;4.87;3.03;;;22.50;99.90;;;;;;5035214;28;20106;-40
2023/07/10 01:44:27;;;;;;;3.65;2.60;;;22.50;99.90;;;;;;5034908;28;20041;-40
2023/07/10 01:46:54;;;;;;;4.40;3.00;;;22.50;99.90;;;;;;5035476;28;20029;-40
2023/07/10 01:49:23;;;;;;;5.15;3.20;;;22.50;99.90;;;;;;5034715;28;20096;-40
2023/07/10 01:51:50;;;;;;;3.15;2.67;;;22.50;99.90;;;;;;5035142;28;20053;-40
2023/07/10 01:54:16;;;;;;;4.25;2.88;;;22.50;99.90;;;;;;5016966;28;20079;-40
2023/07/10 01:56:43;;;;;;;3.03;2.70;;;22.50;99.90;;;;;;5034849;28;20067;-39
2023/07/10 01:59:09;;;;;;;5.57;2.80;;;22.50;99.90;;;;;;5034489;28;20021;-41
2023/07/10 02:01:36;;;;;;;4.43;2.72;;;22.50;99.90;;;;;;5034653;28;20021;-39
2023/07/10 02:04:02;;;;;;;4.00;3.00;;;22.50;99.90;;;;;;5034669;28;20030;-39
2023/07/10 02:06:28;;;;;;;3.88;3.20;;;22.50;99.90;;;;;;5034820;28;20343;-39
2023/07/10 02:08:53;;;;;;;4.10;2.60;;;22.50;99.90;;;;;;5034653;28;20036;-39
2023/07/10 02:11:19;;;;;;;3.97;2.60;;;22.50;99.90;;;;;;5034518;28;20028;-39
2023/07/10 02:13:45;;;;;;;3.42;2.65;;;22.50;99.90;;;;;;5034377;28;20030;-39
2023/07/10 02:16:13;;;;;;;5.00;2.97;;;22.50;99.90;;;;;;5034432;28;20018;-38
2023/07/10 02:18:41;;;;;;;3.78;2.80;;;22.50;99.90;;;;;;5034728;28;20030;-43
2023/07/10 02:21:07;;;;;;;4.70;2.97;;;22.50;99.90;;;;;;5034176;28;20116;-42
2023/07/10 02:23:36;;;;;;;3.67;2.78;;;22.50;99.90;;;;;;5034430;28;20040;-39
2023/07/10 02:26:02;;;;;;;4.35;2.88;;;22.50;99.90;;;;;;5034347;28;20104;-38
2023/07/10 02:28:28;;;;;;;3.38;2.50;;;22.50;99.90;;;;;;5034230;28;20068;-40
2023/07/10 02:30:53;;;;;;;3.78;2.42;;;22.50;99.90;;;;;;5034185;28;20057;-40
2023/07/10 02:33:20;;;;;;;4.68;2.92;;;22.50;99.90;;;;;;5034089;28;20021;-39
2023/07/10 02:35:46;;;;;;;4.60;2.70;;;22.50;99.90;;;;;;5033995;28;20026;-42
2023/07/10 02:38:12;;;;;;;5.05;3.13;;;22.50;99.90;;;;;;5034022;28;20018;-39
2023/07/10 02:40:38;;;;;;;3.50;2.80;;;22.50;99.90;;;;;;5033881;28;20112;-41
2023/07/10 02:43:03;;;;;;;4.22;2.75;;;22.50;99.90;;;;;;5016193;28;20068;-38
2023/07/10 02:45:30;;;;;;;5.20;2.90;;;22.50;99.90;;;;;;5033183;28;20044;-40
2023/07/10 02:47:55;;;;;;;3.05;2.47;;;22.50;99.90;;;;;;5033133;28;20029;-38
2023/07/10 02:50:21;;;;;;;4.07;2.80;;;22.50;99.90;;;;;;5033622;28;20079;-40
2023/07/10 02:52:47;;;;;;;5.05;2.88;;;22.50;99.90;;;;;;5033741;28;20034;-39
2023/07/10 02:55:12;;;;;;;6.35;2.97;;;22.50;99.90;;;;;;5033664;28;20021;-39
2023/07/10 02:57:38;;;;;;;4.15;2.97;;;22.50;99.90;;;;;;5033723;28;20025;-38
2023/07/10 03:00:04;;;;;;;3.40;2.80;;;22.50;99.90;;;;;;5033472;28;20032;-39
2023/07/10 03:02:30;;;;;;;3.00;2.70;;;22.50;99.90;;;;;;5033633;28;20029;-38
2023/07/10 03:04:56;;;;;;;3.72;2.72;;;22.50;99.90;;;;;;5033580;28;20036;-39
2023/07/10 03:07:22;;;;;;;3.35;2.83;;;22.50;99.90;;;;;;5033664;28;20026;-38
2023/07/10 03:09:49;;;;;;;3.40;2.65;;;22.50;99.90;;;;;;5033463;28;20029;-38
2023/07/10 03:12:15;;;;;;;4.35;3.13;;;22.50;99.90;;;;;;5033425;28;20025;-40
2023/07/10 03:14:40;;;;;;;3.67;2.67;;;22.50;99.90;;;;;;5033211;28;20087;-40
2023/07/10 03:17:06;;;;;;;4.30;2.67;;;22.50;99.90;;;;;;5033375;28;20029;-41
2023/07/10 03:19:32;;;;;;;3.30;2.90;;;22.50;99.90;;;;;;5032978;28;20026;-40
2023/07/10 03:21:58;;;;;;;6.50;3.03;;;22.50;99.90;;;;;;5033548;28;20032;-39
2023/07/10 03:24:24;;;;;;;4.80;3.28;;;22.50;99.90;;;;;;5033114;28;20077;-40
2023/07/10 03:26:50;;;;;;;4.15;2.70;;;22.50;99.90;;;;;;5033108;28;20075;-40
2023/07/10 03:29:16;;;;;;;7.55;3.05;;;22.50;99.90;;;;;;5014998;28;20026;-39
2023/07/10 03:31:42;;;;;;;4.15;3.08;;;22.50;99.90;;;;;;5033089;28;20057;-39
2023/07/10 03:34:11;;;;;;;8.23;3.53;;;22.50;99.90;;;;;;5032851;28;20026;-40
2023/07/10 03:36:36;;;;;;;4.47;3.00;;;22.50;99.90;;;;;;5032979;28;20061;-39
2023/07/10 03:39:02;;;;;;;5.97;2.90;;;22.50;99.90;;;;;;5032788;28;20056;-40
2023/07/10 03:41:28;;;;;;;4.72;2.75;;;22.50;99.90;;;;;;5032885;28;20450;-41
2023/07/10 03:43:54;;;;;;;4.40;2.65;;;22.50;99.90;;;;;;5032635;28;20037;-39
2023/07/10 03:46:20;;;;;;;3.30;2.55;;;22.50;99.90;;;;;;5032864;28;20021;-39
2023/07/10 03:48:47;;;;;;;4.38;2.88;;;22.40;99.90;;;;;;5032634;28;20322;-40
2023/07/10 03:51:14;;;;;;;4.53;2.60;;;22.50;99.90;;;;;;5032610;28;20412;-39
2023/07/10 03:53:40;;;;;;;3.10;2.60;;;22.40;99.90;;;;;;5032487;28;20030;-37
2023/07/10 03:56:06;;;;;;;3.72;2.63;;;22.40;99.90;;;;;;5032500;28;20018;-38
2023/07/10 03:58:34;;;;;;;3.75;2.90;;;22.40;99.90;;;;;;5032011;28;20026;-38
2023/07/10 04:01:01;;;;;;;4.20;2.83;;;22.50;99.90;;;;;;5032391;28;20100;-39
2023/07/10 04:03:32;;;;;;;3.92;2.90;;;22.40;99.90;;;;;;5032359;28;20033;-41
2023/07/10 04:05:58;;;;;;;6.03;2.90;;;22.50;99.90;;;;;;5032358;28;20397;-40
2023/07/10 04:08:30;;;;;;;5.40;3.15;;;22.40;99.90;;;;;;5032430;28;20025;-39
2023/07/10 04:10:59;;;;;;;4.30;3.08;;;22.40;99.90;;;;;;5031973;28;20485;-40
2023/07/10 04:13:25;;;;;;;3.85;2.72;;;22.50;99.90;;;;;;5032116;28;20021;-40
2023/07/10 04:16:16;;;;;;;4.57;3.03;;;22.50;99.90;;;;;;5032183;28;20504;-39
2023/07/10 04:18:43;;;;;;;4.85;2.80;;;22.40;99.90;;;;;;5032198;28;20021;-40
2023/07/10 04:21:19;;;;;;;5.60;2.90;;;22.40;99.90;;;;;;5031955;28;20040;-40
2023/07/10 04:23:45;;;;;;;3.65;2.90;;;22.50;99.90;;;;;;5032081;28;20500;-40
2023/07/10 04:26:20;;;;;;;3.20;2.90;;;22.50;99.90;;;;;;5032013;28;20092;-40
2023/07/10 04:28:47;;;;;;;3.50;2.83;;;22.40;99.90;;;;;;5031803;28;20040;-41
2023/07/10 04:31:14;;;;;;;5.68;3.40;;;22.40;99.90;;;;;;5031925;28;20041;-39
2023/07/10 04:33:40;;;;;;;4.57;2.63;;;22.40;99.90;;;;;;5031724;28;20025;-41
2023/07/10 04:36:06;;;;;;;3.42;2.65;;;22.40;99.90;;;;;;5031917;28;20021;-39
2023/07/10 04:38:31;;;;;;;3.83;2.75;;;22.40;99.90;;;;;;5031867;28;20017;-40
2023/07/10 04:41:01;;;;;;;4.57;2.53;;;22.40;99.90;;;;;;5031664;28;20473;-37
2023/07/10 04:43:30;;;;;;;3.63;2.65;;;22.40;99.90;;;;;;5031704;28;20045;-39
2023/07/10 04:45:57;;;;;;;4.30;3.10;;;22.40;99.90;;;;;;5031748;28;20067;-38
2023/07/10 04:48:24;;;;;;;8.48;4.15;;;22.40;99.90;;;;;;5031549;28;20103;-40
2023/07/10 04:50:51;;;;;;;8.50;3.80;;;22.40;99.90;;;;;;5031317;28;20065;-42
2023/07/10 04:53:18;;;;;;;9.43;4.40;;;22.30;99.90;;;;;;5031498;28;20049;-38
2023/07/10 04:55:44;;;;;;;11.15;4.70;;;22.30;99.90;;;;;;5031419;28;20101;-37
2023/07/10 04:58:10;;;;;;;8.90;4.10;;;22.30;99.90;;;;;;5031567;28;20111;-42
2023/07/10 05:00:37;;;;;;;6.68;4.22;;;22.30;99.90;;;;;;5031298;28;20079;-40
2023/07/10 05:03:04;;;;;;;6.10;4.18;;;22.30;99.90;;;;;;5031383;28;20493;-39
2023/07/10 05:05:29;;;;;;;9.57;4.90;;;22.40;99.90;;;;;;5031318;28;20087;-40
2023/07/10 05:07:55;;;;;;;8.65;4.30;;;22.40;99.90;;;;;;5031378;28;20025;-41
2023/07/10 05:10:21;;;;;;;7.70;4.15;;;22.40;99.90;;;;;;5030442;28;20033;-40
2023/07/10 05:12:46;;;;;;;7.38;4.55;;;22.40;99.90;;;;;;5031247;28;20051;-40
2023/07/10 05:15:12;;;;;;;12.63;4.70;;;22.40;99.90;;;;;;5031181;28;20037;-39
2023/07/10 05:17:39;;;;;;;5.32;4.10;;;22.40;99.90;;;;;;5031130;28;20017;-39
2023/07/10 05:20:06;;;;;;;7.28;4.13;;;22.40;99.90;;;;;;5031003;28;20132;-38
2023/07/10 05:22:31;;;;;;;6.35;4.10;;;22.40;99.90;;;;;;5031163;28;20034;-39
2023/07/10 05:24:57;;;;;;;6.43;3.95;;;22.40;99.90;;;;;;5031407;28;20507;-39
2023/07/10 05:27:22;;;;;;;5.43;3.90;;;22.40;99.90;;;;;;5031115;28;20034;-40
2023/07/10 05:29:48;;;;;;;6.85;4.05;;;22.40;99.90;;;;;;5030967;28;20037;-38
2023/07/10 05:32:14;;;;;;;7.55;4.13;;;22.50;99.90;;;;;;5030990;28;20120;-37
2023/07/10 05:34:41;;;;;;;6.70;4.35;;;22.40;99.90;;;;;;5030985;28;20022;-40
2023/07/10 05:37:06;;;;;;;9.55;3.85;;;22.40;99.90;;;;;;5031171;28;20384;-40
2023/07/10 05:39:32;;;;;;;10.50;3.83;;;22.50;99.90;;;;;;5030783;28;20104;-40
2023/07/10 05:41:59;;;;;;;6.05;3.80;;;22.50;99.90;;;;;;5031167;28;20029;-38
2023/07/10 05:44:25;;;;;;;6.82;3.72;;;22.50;99.90;;;;;;5030935;28;20021;-39
2023/07/10 05:46:51;;;;;;;10.40;4.18;;;22.50;99.90;;;;;;5030913;28;20492;-39
2023/07/10 05:49:17;;;;;;;6.15;3.72;;;22.50;99.90;;;;;;5030743;28;20018;-39
2023/07/10 05:51:43;;;;;;;7.07;3.97;;;22.50;99.90;;;;;;5030967;28;20121;-40
2023/07/10 05:54:09;;;;;;;6.35;4.03;;;22.50;99.90;;;;;;5030795;28;20104;-38
2023/07/10 05:56:34;;;;;;;10.15;4.30;;;22.50;99.90;;;;;;5030952;28;20021;-39
2023/07/10 05:59:01;;;;;;;8.32;3.45;;;22.50;99.90;;;;;;5030711;28;20026;-40
2023/07/10 06:01:27;;;;;;;5.22;3.38;;;22.50;99.90;;;;;;5030803;28;20025;-39
2023/07/10 06:03:52;;;;;;;6.05;3.78;;;22.50;99.90;;;;;;5030825;28;20097;-38
2023/07/10 06:06:18;;;;;;;7.55;3.70;;;22.50;99.90;;;;;;5030842;28;20052;-40
2023/07/10 06:08:44;;;;;;;6.68;3.70;;;22.50;99.90;;;;;;5030581;28;20037;-39
2023/07/10 06:11:09;;;;;;;7.18;3.97;;;22.50;99.90;;;;;;5012974;28;20397;-39
2023/07/10 06:13:36;;;;;;;5.00;3.47;;;22.50;99.90;;;;;;5030659;28;20030;-42
2023/07/10 06:16:05;;;;;;;5.40;3.60;;;22.50;99.90;;;;;;5030658;28;20033;-39
2023/07/10 06:18:31;;;;;;;5.93;3.80;;;22.50;99.90;;;;;;5030811;28;20025;-37
2023/07/10 06:20:58;;;;;;;5.55;3.33;;;22.50;99.90;;;;;;5031871;28;20044;-39
2023/07/10 06:23:26;;;;;;;5.38;3.35;;;22.50;99.90;;;;;;5034318;28;20035;-40
2023/07/10 06:25:52;;;;;;;7.55;3.25;;;22.50;99.90;;;;;;5034296;28;20022;-42
2023/07/10 06:28:18;;;;;;;4.93;3.55;;;22.50;99.90;;;;;;5016707;28;20120;-39
2023/07/10 06:30:53;;;;;;;5.55;3.65;;;22.50;99.90;;;;;;5033964;28;20034;-39
2023/07/10 06:33:19;;;;;;;6.00;3.55;;;22.50;99.90;;;;;;5034063;28;20029;-40
2023/07/10 06:35:44;;;;;;;5.60;3.55;;;22.50;99.90;;;;;;5034059;28;20381;-40
2023/07/10 06:38:10;;;;;;;5.80;3.97;;;22.50;99.90;;;;;;5034116;28;20041;-39
2023/07/10 06:40:36;;;;;;;6.93;4.22;;;22.60;99.90;;;;;;5033846;28;20105;-41
2023/07/10 06:43:01;;;;;;;6.90;4.13;;;22.60;99.90;;;;;;5033912;28;20493;-41
2023/07/10 06:45:27;;;;;;;9.45;3.92;;;22.60;99.90;;;;;;5033847;28;20030;-39
2023/07/10 06:47:52;;;;;;;6.35;4.05;;;22.60;99.90;;;;;;5033942;28;20037;-41
2023/07/10 06:50:18;;;;;;;10.65;4.28;;;22.70;99.90;;;;;;5033642;28;20473;-39
2023/07/10 06:52:44;;;;;;;6.55;3.92;;;22.70;99.90;;;;;;5033753;28;20061;-40
2023/07/10 06:55:15;;;;;;;5.68;4.13;;;22.70;99.90;;;;;;5033701;28;20029;-41
2023/07/10 06:57:41;;;;;;;6.97;3.90;;;22.70;99.90;;;;;;5033567;28;20075;-41
2023/07/10 07:00:09;;;;;;;9.55;4.57;;;22.70;99.90;;;;;;5033449;28;20025;-40
2023/07/10 07:02:36;;;;;;;6.30;4.00;;;22.70;99.90;;;;;;5033812;28;20542;-40
2023/07/10 07:05:03;;;;;;;8.32;4.20;;;22.70;99.90;;;;;;5033534;28;20021;-40
2023/07/10 07:07:29;;;;;;;10.00;4.28;;;22.70;99.90;;;;;;5033515;28;20485;-39
2023/07/10 07:09:54;;;;;;;5.57;3.45;;;22.80;99.90;;;;;;5033392;28;20039;-43
2023/07/10 07:12:20;;;;;;;8.23;4.10;;;22.70;99.90;;;;;;5033385;28;20056;-38
2023/07/10 07:14:45;;;;;;;6.00;3.60;;;22.70;99.90;;;;;;5033342;28;20461;-40
2023/07/10 07:17:12;;;;;;;6.50;3.90;;;22.70;99.90;;;;;;5033363;28;20106;-40
2023/07/10 07:19:38;;;;;;;6.95;3.53;;;22.70;99.90;;;;;;5033112;28;20033;-39
2023/07/10 07:22:04;;;;;;;5.40;3.72;;;22.80;99.90;;;;;;5033296;28;20103;-38
2023/07/10 07:24:29;;;;;;;7.10;3.80;;;22.70;99.90;;;;;;5033144;28;20048;-40
2023/07/10 07:26:55;;;;;;;7.13;3.60;;;22.80;99.90;;;;;;5033209;28;20079;-41
2023/07/10 07:29:21;;;;;;;4.72;3.60;;;22.80;99.90;;;;;;5033087;28;20036;-43
2023/07/10 07:31:46;;;;;;;5.28;4.00;;;22.80;99.90;;;;;;5032727;28;20034;-40
2023/07/10 07:34:13;;;;;;;5.13;3.50;;;22.80;99.90;;;;;;5032622;28;20037;-39
2023/07/10 07:36:38;;;;;;;5.40;3.60;;;22.80;99.90;;;;;;5033212;28;20362;-41
2023/07/10 07:39:05;;;;;;;5.85;3.47;;;22.80;99.90;;;;;;5032814;28;20052;-41
2023/07/10 07:41:32;;;;;;;5.70;3.45;;;22.80;99.90;;;;;;5033296;28;20487;-40
2023/07/10 07:43:58;;;;;;;4.15;3.35;;;22.80;99.90;;;;;;5032833;28;20029;-41
2023/07/10 07:46:24;;;;;;;7.60;3.75;;;22.80;99.90;;;;;;5032854;28;20025;-41
2023/07/10 07:48:50;;;;;;;4.60;3.60;;;22.80;99.90;;;;;;5032590;28;20032;-41
2023/07/10 07:51:16;;;;;;;3.92;3.22;;;22.80;99.90;;;;;;5033126;28;20468;-38
2023/07/10 07:53:41;;;;;;;4.22;3.20;;;22.80;99.90;;;;;;5032515;28;20034;-40
2023/07/10 07:56:08;;;;;;;4.63;3.28;;;22.80;99.90;;;;;;5032586;28;20017;-40
2023/07/10 07:58:33;;;;;;;5.72;3.85;;;22.80;99.90;;;;;;5015010;28;20049;-40
2023/07/10 08:00:59;;;;;;;6.25;3.70;;;22.80;99.90;;;;;;5032445;28;20049;-39
2023/07/10 08:03:26;;;;;;;4.43;3.50;;;22.80;99.90;;;;;;5032385;28;20519;-41
2023/07/10 08:05:52;;;;;;;4.20;3.45;;;22.80;99.90;;;;;;5032379;28;20048;-40
2023/07/10 08:08:18;;;;;;;4.25;3.05;;;22.80;99.90;;;;;;5032324;28;20469;-40
2023/07/10 08:10:47;;;;;;;4.65;3.13;;;22.80;99.90;;;;;;5032055;28;20048;-39
2023/07/10 08:13:13;;;;;;;9.27;3.60;;;22.80;99.90;;;;;;5032205;28;20568;-42
2023/07/10 08:15:40;;;;;;;6.30;4.10;;;22.80;99.90;;;;;;5032176;28;20432;-39
2023/07/10 08:18:06;;;;;;;6.53;4.43;;;22.80;99.90;;;;;;5032217;28;20017;-43
2023/07/10 08:20:32;;;;;;;11.77;4.80;;;22.90;99.90;;;;;;5032341;28;20033;-40
2023/07/10 08:22:57;;;;;;;8.60;4.38;;;22.80;99.90;;;;;;5014529;28;20439;-41
2023/07/10 08:25:23;;;;;;;7.40;4.40;;;22.90;99.90;;;;;;5032498;28;20037;-43
2023/07/10 08:27:49;;;;;;;10.20;4.40;;;22.80;99.90;;;;;;5032045;28;20032;-40
2023/07/10 08:30:15;;;;;;;7.78;4.50;;;22.80;99.90;;;;;;5031870;28;20053;-40
2023/07/10 08:32:41;;;;;;;8.60;4.13;;;22.90;99.90;;;;;;5031921;28;20030;-39
2023/07/10 08:35:08;;;;;;;5.63;3.75;;;22.90;99.90;;;;;;5031774;28;20044;-40
2023/07/10 08:37:36;;;;;;;7.40;4.22;;;22.90;99.90;;;;;;5031711;28;20485;-41
2023/07/10 08:40:06;;;;;;;5.63;3.95;;;22.90;99.90;;;;;;5031583;28;20104;-40
2023/07/10 08:42:32;;;;;;;6.90;4.05;;;22.90;99.90;;;;;;5031811;28;20485;-40
2023/07/10 08:45:00;;;;;;;5.25;3.80;;;22.90;99.90;;;;;;5031619;28;20570;-39
2023/07/10 08:47:34;;;;;;;7.15;4.13;;;22.90;99.90;;;;;;5032089;28;20074;-40
2023/07/10 08:50:18;;;;;;;5.40;3.50;;;22.90;99.90;;;;;;5031377;28;20034;-38
2023/07/10 08:52:56;;;;;;;4.67;3.60;;;22.90;99.90;;;;;;5031679;28;20033;-41
2023/07/10 08:55:44;;;;;;;5.20;3.63;;;22.90;99.90;;;;;;5031607;28;20267;-38
2023/07/10 08:58:18;;;;;;;4.68;3.60;;;22.90;99.90;;;;;;5031689;28;20041;-40
2023/07/10 09:00:47;;;;;;;5.55;4.03;;;22.90;99.90;;;;;;5031598;28;20029;-40
2023/07/10 09:03:30;;;;;;;5.63;3.67;;;22.90;99.90;;;;;;5031400;28;20115;-40
2023/07/10 09:05:57;;;;;;;7.57;3.67;;;22.90;99.90;;;;;;5031433;28;20057;-40
2023/07/10 09:08:24;;;;;;;5.00;3.28;;;22.90;99.90;;;;;;5031779;28;20108;-40
2023/07/10 09:10:56;;;;;;;5.53;3.42;;;22.90;99.90;;;;;;5031167;28;20120;-37
2023/07/10 09:13:45;;;;;;;4.75;3.22;;;22.90;99.90;;;;;;5031443;28;20025;-41
2023/07/10 09:16:20;;;;;;;4.95;3.60;;;22.90;99.90;;;;;;5031460;28;20018;-41
2023/07/10 09:18:52;;;;;;;4.80;3.30;;;22.90;99.90;;;;;;5031642;28;20026;-39
2023/07/10 09:21:28;;;;;;;4.90;3.42;;;22.90;99.90;;;;;;5031040;28;20037;-40
2023/07/10 09:23:55;;;;;;;5.13;3.53;;;22.90;99.90;;;;;;5031588;28;20393;-40
2023/07/10 09:26:30;;;;;;;5.70;3.55;;;22.90;99.90;;;;;;5031129;28;20515;-40
2023/07/10 09:29:27;;;;;;;4.93;3.03;;;22.90;99.90;;;;;;5031074;28;20052;-38
2023/07/10 09:32:10;;;;;;;5.00;3.20;;;22.90;99.90;;;;;;5013378;28;20405;-39
2023/07/10 09:34:42;;;;;;;4.30;3.10;;;22.90;99.90;;;;;;5031032;28;20559;-41
2023/07/10 09:37:12;;;;;;;3.97;2.92;;;22.90;99.90;;;;;;5031124;28;20112;-42
2023/07/10 09:39:38;;;;;;;4.82;3.40;;;22.90;99.90;;;;;;5030893;28;20052;-38
2023/07/10 09:42:09;;;;;;;4.13;3.55;;;22.90;99.90;;;;;;5030988;28;20052;-40
2023/07/10 09:44:44;;;;;;;4.68;3.50;;;22.90;99.90;;;;;;5031181;28;20021;-40
2023/07/10 09:47:12;;;;;;;4.30;3.13;;;22.90;99.90;;;;;;5031231;28;20017;-40
2023/07/10 09:49:53;;;;;;;4.78;3.03;;;22.90;99.90;;;;;;5031201;28;20068;-40
2023/07/10 09:52:22;;;;;;;4.90;3.25;;;22.90;99.90;;;;;;5030867;28;20097;-41
2023/07/10 09:54:49;;;;;;;3.33;2.50;;;22.90;99.90;;;;;;5030839;28;20436;-39
2023/07/10 09:57:18;;;;;;;4.70;2.95;;;23.00;99.90;;;;;;5034607;28;20036;-38
2023/07/10 09:59:51;;;;;;;3.65;3.17;;;23.00;99.90;;;;;;5034620;28;20029;-40
2023/07/10 10:02:19;;;;;;;3.67;3.00;;;22.90;99.90;;;;;;5034824;28;20021;-39
2023/07/10 10:04:51;;;;;;;3.92;3.20;;;23.00;99.90;;;;;;5034644;28;20061;-40
2023/07/10 10:07:21;;;;;;;3.88;2.95;;;22.90;99.90;;;;;;5034582;28;20033;-39
2023/07/10 10:09:47;;;;;;;4.68;2.60;;;22.90;99.90;;;;;;5034822;28;20021;-39
2023/07/10 10:12:30;;;;;;;4.07;2.90;;;22.90;99.90;;;;;;5034585;28;20400;-39
2023/07/10 10:15:06;;;;;;;4.70;3.65;;;23.00;99.90;;;;;;5034553;28;20033;-40
2023/07/10 10:17:37;;;;;;;5.22;3.22;;;22.90;99.90;;;;;;5034434;28;20013;-40
2023/07/10 10:20:17;;;;;;;4.03;2.90;;;23.00;99.90;;;;;;5034355;28;20132;-40
2023/07/10 10:22:42;;;;;;;4.25;3.10;;;23.00;99.90;;;;;;5034480;28;20109;-41
2023/07/10 10:25:16;;;;;;;3.88;3.17;;;23.00;99.90;;;;;;5034330;28;20589;-40
2023/07/10 10:27:42;;;;;;;3.90;3.33;;;23.00;99.90;;;;;;5034370;28;20036;-40
2023/07/10 10:30:10;;;;;;;5.43;3.10;;;23.00;99.90;;;;;;5034010;28;20033;-40
2023/07/10 10:33:01;;;;;;;3.42;2.92;;;23.00;99.90;;;;;;5034162;28;20032;-38
2023/07/10 10:35:56;;;;;;;5.85;2.95;;;23.00;99.90;;;;;;5034414;28;20033;-37
2023/07/10 10:38:35;;;;;;;4.03;3.10;;;23.00;99.90;;;;;;5034550;28;20041;-40
2023/07/10 10:41:10;;;;;;;3.72;3.00;;;23.00;99.90;;;;;;5034587;28;20477;-39
2023/07/10 10:43:36;;;;;;;4.30;3.03;;;23.00;99.90;;;;;;5033951;28;20084;-40
2023/07/10 10:46:22;;;;;;;4.45;2.90;;;23.00;99.90;;;;;;5033907;28;20489;-41
2023/07/10 10:48:57;;;;;;;4.70;2.83;;;23.00;99.90;;;;;;5033668;28;20037;-40
2023/07/10 10:51:33;;;;;;;3.45;2.97;;;23.00;99.90;;;;;;5033852;28;20029;-40
2023/07/10 10:54:18;;;;;;;3.88;2.60;;;23.00;99.90;;;;;;5033849;28;20060;-39
2023/07/10 10:57:08;;;;;;;4.90;3.13;;;23.00;99.90;;;;;;5033829;28;20036;-42
2023/07/10 10:59:45;;;;;;;4.20;2.97;;;23.00;99.90;;;;;;5033521;28;20026;-40
2023/07/10 11:02:20;;;;;;;3.50;2.78;;;23.00;99.90;;;;;;5033822;28;20470;-40
2023/07/10 11:04:49;;;;;;;3.70;3.00;;;23.10;99.90;;;;;;5015999;28;20412;-40
2023/07/10 11:07:19;;;;;;;3.42;2.85;;;23.10;99.90;;;;;;5032437;28;20520;-40
2023/07/10 11:09:51;;;;;;;5.43;3.17;;;23.00;99.90;;;;;;5033224;28;20030;-42
2023/07/10 11:12:22;;;;;;;4.70;3.17;;;23.10;99.90;;;;;;5033465;28;20021;-41
2023/07/10 11:14:51;;;;;;;3.95;2.65;;;23.10;99.90;;;;;;5033389;28;20084;-39
2023/07/10 11:17:16;;;;;;;3.63;2.85;;;23.00;99.90;;;;;;5033750;28;20051;-39
2023/07/10 11:19:43;;;;;;;4.55;2.97;;;23.00;99.90;;;;;;5033128;28;20335;-40
2023/07/10 11:22:26;;;;;;;4.18;2.95;;;23.10;99.90;;;;;;5033210;28;20034;-41
2023/07/10 11:24:52;;;;;;;3.65;3.05;;;23.10;99.90;;;;;;5033197;28;20029;-39
2023/07/10 11:27:28;;;;;;;3.72;2.95;;;23.00;99.90;;;;;;5033402;28;20022;-40
2023/07/10 11:29:58;;;;;;;3.78;2.85;;;23.10;99.90;;;;;;5032977;28;20064;-40
2023/07/10 11:32:26;;;;;;;3.42;2.88;;;23.10;99.90;;;;;;5033190;28;20028;-38
2023/07/10 11:35:18;;;;;;;3.15;2.67;;;23.10;99.90;;;;;;5032976;28;20028;-39
2023/07/10 11:37:49;;;;;;;4.45;3.05;;;23.10;99.90;;;;;;5033059;28;20029;-41
2023/07/10 11:40:27;;;;;;;3.72;2.53;;;23.10;99.90;;;;;;5032852;28;20026;-39
2023/07/10 11:43:17;;;;;;;4.38;2.80;;;23.10;99.90;;;;;;5032982;28;20037;-38
2023/07/10 11:46:02;;;;;;;3.83;2.88;;;23.10;99.90;;;;;;4995396;28;20107;-40
2023/07/10 11:48:39;;;;;;;3.42;2.80;;;23.10;99.90;;;;;;5015187;28;20511;-41
2023/07/10 11:51:33;;;;;;;4.80;2.92;;;23.10;99.90;;;;;;5032708;28;20109;-40
2023/07/10 11:54:04;;;;;;;4.65;2.80;;;23.10;99.90;;;;;;5032544;28;20366;-40
2023/07/10 11:56:30;;;;;;;5.72;2.92;;;23.10;99.90;;;;;;5032615;28;20503;-40
2023/07/10 11:58:58;;;;;;;4.55;2.78;;;23.10;99.90;;;;;;5032410;28;20104;-40
2023/07/10 12:01:25;;;;;;;4.82;2.72;;;23.20;99.90;;;;;;5032560;28;20068;-43
2023/07/10 12:03:54;;;;;;;5.38;3.00;;;23.10;99.90;;;;;;5032318;28;20087;-39
2023/07/10 12:06:25;;;;;;;3.28;2.72;;;23.20;99.90;;;;;;5032531;28;20029;-40
2023/07/10 12:08:52;;;;;;;3.22;2.70;;;23.20;99.90;;;;;;5014568;28;20022;-41
2023/07/10 12:11:37;;;;;;;3.92;2.70;;;23.10;99.90;;;;;;5032312;28;20036;-39
2023/07/10 12:14:04;;;;;;;;;;;23.20;99.90;;;;;;5032619;28;20045;-41
2023/07/10 12:16:30;;;;;;;4.18;2.60;;;23.20;99.90;;;;;;5032214;28;19915;-38
2023/07/10 12:19:11;;;;;;;3.90;2.90;;;23.20;99.90;;;;;;5031775;28;20021;-40
2023/07/10 12:21:37;;;;;;;4.22;2.88;;;23.20;99.90;;;;;;5032149;28;20082;-43
2023/07/10 12:24:03;;;;;;;3.45;2.58;;;23.20;99.90;;;;;;5032059;28;20037;-39
2023/07/10 12:26:30;;;;;;;3.55;2.63;;;23.20;99.90;;;;;;5032168;28;20340;-39
2023/07/10 12:28:57;;;;;;;3.42;2.75;;;23.20;99.90;;;;;;5031799;28;20029;-40
2023/07/10 12:31:24;;;;;;;3.85;2.92;;;23.20;99.90;;;;;;5032725;28;20060;-39
2023/07/10 12:33:51;;;;;;;4.68;2.50;;;23.20;99.90;;;;;;5031801;28;20029;-39
2023/07/10 12:36:27;;;;;;;3.47;2.55;;;23.20;99.90;;;;;;5031907;28;20017;-38
2023/07/10 12:39:04;;;;;;;3.53;2.60;;;23.20;99.90;;;;;;5031752;28;20108;-38
2023/07/10 12:41:41;;;;;;;3.08;2.50;;;23.20;99.90;;;;;;5031815;28;20772;-39
2023/07/10 12:44:15;;;;;;;6.30;2.78;;;23.20;99.90;;;;;;5031664;28;20029;-40
2023/07/10 12:46:41;;;;;;;;;;;23.20;99.90;;;;;;5032202;28;20026;-38
2023/07/10 12:49:13;;;;;;;3.45;2.58;;;23.20;99.90;;;;;;5032011;28;19912;-39
2023/07/10 12:51:41;;;;;;;2.97;2.60;;;23.20;99.90;;;;;;5032193;28;20095;-40
2023/07/10 12:54:23;;;;;;;3.28;2.63;;;23.20;99.90;;;;;;5031462;28;20032;-39
2023/07/10 12:56:52;;;;;;;3.60;2.80;;;23.20;99.90;;;;;;5031833;28;20492;-38
2023/07/10 12:59:28;;;;;;;3.50;2.80;;;23.20;99.90;;;;;;5031335;28;20104;-40